sensor_id;sensor_type;location;lat;lon;timestamp;P1;durP1;ratioP1;P2;durP2;ratioP2
51792;SDS011;37850;53.178;6.376;2023-04-25T00:01:11;23.77;;;3.67;;
51792;SDS011;37850;53.178;6.376;2023-04-25T00:03:38;17.77;;;3.35;;
51792;SDS011;37850;53.178;6.376;2023-04-25T00:06:04;24.08;;;3.67;;
51792;SDS011;37850;53.178;6.376;2023-04-25T00:08:30;22.75;;;3.55;;
51792;SDS011;37850;53.178;6.376;2023-04-25T00:10:56;17.00;;;3.47;;
51792;SDS011;37850;53.178;6.376;2023-04-25T00:13:22;27.38;;;4.82;;
51792;SDS011;37850;53.178;6.376;2023-04-25T00:15:48;18.70;;;3.90;;
51792;SDS011;37850;53.178;6.376;2023-04-25T00:18:14;24.48;;;3.58;;
51792;SDS011;37850;53.178;6.376;2023-04-25T00:20:40;19.38;;;3.85;;
51792;SDS011;37850;53.178;6.376;2023-04-25T00:23:11;21.92;;;4.57;;
51792;SDS011;37850;53.178;6.376;2023-04-25T00:25:43;15.65;;;3.10;;
51792;SDS011;37850;53.178;6.376;2023-04-25T00:28:13;21.10;;;3.30;;
51792;SDS011;37850;53.178;6.376;2023-04-25T00:30:39;19.80;;;3.75;;
51792;SDS011;37850;53.178;6.376;2023-04-25T00:33:06;11.82;;;2.67;;
51792;SDS011;37850;53.178;6.376;2023-04-25T00:35:32;19.20;;;3.17;;
51792;SDS011;37850;53.178;6.376;2023-04-25T00:37:58;23.48;;;3.63;;
51792;SDS011;37850;53.178;6.376;2023-04-25T00:40:24;17.55;;;2.67;;
51792;SDS011;37850;53.178;6.376;2023-04-25T00:42:51;19.88;;;3.00;;
51792;SDS011;37850;53.178;6.376;2023-04-25T00:45:18;21.13;;;3.40;;
51792;SDS011;37850;53.178;6.376;2023-04-25T00:47:44;17.10;;;2.65;;
51792;SDS011;37850;53.178;6.376;2023-04-25T00:50:11;25.45;;;3.75;;
51792;SDS011;37850;53.178;6.376;2023-04-25T00:52:37;21.83;;;5.05;;
51792;SDS011;37850;53.178;6.376;2023-04-25T00:55:05;13.25;;;2.75;;
51792;SDS011;37850;53.178;6.376;2023-04-25T00:57:32;17.80;;;2.67;;
51792;SDS011;37850;53.178;6.376;2023-04-25T00:59:58;13.13;;;2.33;;
51792;SDS011;37850;53.178;6.376;2023-04-25T01:02:24;17.23;;;2.67;;
51792;SDS011;37850;53.178;6.376;2023-04-25T01:04:52;16.15;;;2.60;;
51792;SDS011;37850;53.178;6.376;2023-04-25T01:07:18;20.63;;;2.78;;
51792;SDS011;37850;53.178;6.376;2023-04-25T01:09:45;16.58;;;2.47;;
51792;SDS011;37850;53.178;6.376;2023-04-25T01:12:11;14.27;;;2.30;;
51792;SDS011;37850;53.178;6.376;2023-04-25T01:14:37;21.83;;;3.10;;
51792;SDS011;37850;53.178;6.376;2023-04-25T01:17:03;17.00;;;2.70;;
51792;SDS011;37850;53.178;6.376;2023-04-25T01:19:29;19.65;;;3.03;;
51792;SDS011;37850;53.178;6.376;2023-04-25T01:21:56;15.52;;;2.38;;
51792;SDS011;37850;53.178;6.376;2023-04-25T01:24:22;20.27;;;2.67;;
51792;SDS011;37850;53.178;6.376;2023-04-25T01:26:48;15.52;;;2.35;;
51792;SDS011;37850;53.178;6.376;2023-04-25T01:29:20;14.75;;;2.55;;
51792;SDS011;37850;53.178;6.376;2023-04-25T01:31:46;15.82;;;2.53;;
51792;SDS011;37850;53.178;6.376;2023-04-25T01:34:12;15.18;;;2.70;;
51792;SDS011;37850;53.178;6.376;2023-04-25T01:36:38;13.25;;;2.55;;
51792;SDS011;37850;53.178;6.376;2023-04-25T01:39:05;17.77;;;2.78;;
51792;SDS011;37850;53.178;6.376;2023-04-25T01:41:32;21.25;;;2.50;;
51792;SDS011;37850;53.178;6.376;2023-04-25T01:43:59;24.42;;;2.60;;
51792;SDS011;37850;53.178;6.376;2023-04-25T01:46:26;18.60;;;2.83;;
51792;SDS011;37850;53.178;6.376;2023-04-25T01:48:52;11.48;;;2.10;;
51792;SDS011;37850;53.178;6.376;2023-04-25T01:51:18;19.00;;;2.97;;
51792;SDS011;37850;53.178;6.376;2023-04-25T01:53:45;22.80;;;3.65;;
51792;SDS011;37850;53.178;6.376;2023-04-25T01:56:11;21.02;;;2.53;;
51792;SDS011;37850;53.178;6.376;2023-04-25T01:58:37;17.27;;;2.13;;
51792;SDS011;37850;53.178;6.376;2023-04-25T02:01:03;19.58;;;2.42;;
51792;SDS011;37850;53.178;6.376;2023-04-25T02:03:29;14.25;;;2.25;;
51792;SDS011;37850;53.178;6.376;2023-04-25T02:05:56;18.52;;;2.47;;
51792;SDS011;37850;53.178;6.376;2023-04-25T02:08:21;14.15;;;2.40;;
51792;SDS011;37850;53.178;6.376;2023-04-25T02:10:47;19.67;;;2.85;;
51792;SDS011;37850;53.178;6.376;2023-04-25T02:13:13;19.95;;;3.42;;
51792;SDS011;37850;53.178;6.376;2023-04-25T02:15:38;22.52;;;3.75;;
51792;SDS011;37850;53.178;6.376;2023-04-25T02:18:04;13.20;;;2.10;;
51792;SDS011;37850;53.178;6.376;2023-04-25T02:20:31;15.60;;;2.47;;
51792;SDS011;37850;53.178;6.376;2023-04-25T02:22:57;13.43;;;2.80;;
51792;SDS011;37850;53.178;6.376;2023-04-25T02:25:26;15.88;;;2.97;;
51792;SDS011;37850;53.178;6.376;2023-04-25T02:27:53;17.15;;;2.72;;
51792;SDS011;37850;53.178;6.376;2023-04-25T02:30:19;17.95;;;2.65;;
51792;SDS011;37850;53.178;6.376;2023-04-25T02:32:45;19.50;;;2.42;;
51792;SDS011;37850;53.178;6.376;2023-04-25T02:35:11;16.67;;;2.70;;
51792;SDS011;37850;53.178;6.376;2023-04-25T02:37:37;14.15;;;2.55;;
51792;SDS011;37850;53.178;6.376;2023-04-25T02:40:04;15.38;;;2.80;;
51792;SDS011;37850;53.178;6.376;2023-04-25T02:42:30;19.58;;;2.95;;
51792;SDS011;37850;53.178;6.376;2023-04-25T02:44:56;15.98;;;2.25;;
51792;SDS011;37850;53.178;6.376;2023-04-25T02:47:22;18.77;;;3.83;;
51792;SDS011;37850;53.178;6.376;2023-04-25T02:49:48;16.50;;;2.28;;
51792;SDS011;37850;53.178;6.376;2023-04-25T02:52:13;18.35;;;2.40;;
51792;SDS011;37850;53.178;6.376;2023-04-25T02:54:39;15.30;;;1.80;;
51792;SDS011;37850;53.178;6.376;2023-04-25T02:57:06;12.85;;;2.40;;
51792;SDS011;37850;53.178;6.376;2023-04-25T02:59:32;13.55;;;2.15;;
51792;SDS011;37850;53.178;6.376;2023-04-25T03:01:58;16.92;;;3.17;;
51792;SDS011;37850;53.178;6.376;2023-04-25T03:04:26;18.25;;;3.00;;
51792;SDS011;37850;53.178;6.376;2023-04-25T03:06:53;12.45;;;2.40;;
51792;SDS011;37850;53.178;6.376;2023-04-25T03:09:19;16.52;;;2.63;;
51792;SDS011;37850;53.178;6.376;2023-04-25T03:11:45;15.23;;;1.85;;
51792;SDS011;37850;53.178;6.376;2023-04-25T03:14:11;10.90;;;1.90;;
51792;SDS011;37850;53.178;6.376;2023-04-25T03:16:37;16.45;;;2.80;;
51792;SDS011;37850;53.178;6.376;2023-04-25T03:19:03;10.40;;;1.90;;
51792;SDS011;37850;53.178;6.376;2023-04-25T03:21:30;16.27;;;2.10;;
51792;SDS011;37850;53.178;6.376;2023-04-25T03:23:57;11.02;;;1.80;;
51792;SDS011;37850;53.178;6.376;2023-04-25T03:26:26;10.85;;;1.85;;
51792;SDS011;37850;53.178;6.376;2023-04-25T03:28:51;12.23;;;1.70;;
51792;SDS011;37850;53.178;6.376;2023-04-25T03:31:17;14.10;;;1.60;;
51792;SDS011;37850;53.178;6.376;2023-04-25T03:33:43;14.27;;;2.00;;
51792;SDS011;37850;53.178;6.376;2023-04-25T03:36:08;12.18;;;2.05;;
51792;SDS011;37850;53.178;6.376;2023-04-25T03:38:34;14.27;;;1.95;;
51792;SDS011;37850;53.178;6.376;2023-04-25T03:41:01;15.23;;;3.08;;
51792;SDS011;37850;53.178;6.376;2023-04-25T03:43:27;24.52;;;2.83;;
51792;SDS011;37850;53.178;6.376;2023-04-25T03:45:52;13.95;;;1.83;;
51792;SDS011;37850;53.178;6.376;2023-04-25T03:48:19;11.15;;;1.85;;
51792;SDS011;37850;53.178;6.376;2023-04-25T03:50:49;7.60;;;1.87;;
51792;SDS011;37850;53.178;6.376;2023-04-25T03:53:15;11.52;;;2.03;;
51792;SDS011;37850;53.178;6.376;2023-04-25T03:55:41;14.15;;;1.65;;
51792;SDS011;37850;53.178;6.376;2023-04-25T03:58:07;17.15;;;2.08;;
51792;SDS011;37850;53.178;6.376;2023-04-25T04:00:34;10.07;;;1.88;;
51792;SDS011;37850;53.178;6.376;2023-04-25T04:03:00;17.67;;;2.28;;
51792;SDS011;37850;53.178;6.376;2023-04-25T04:05:26;14.32;;;1.90;;
51792;SDS011;37850;53.178;6.376;2023-04-25T04:07:52;18.08;;;2.20;;
51792;SDS011;37850;53.178;6.376;2023-04-25T04:10:21;18.60;;;2.53;;
51792;SDS011;37850;53.178;6.376;2023-04-25T04:12:47;17.75;;;2.60;;
51792;SDS011;37850;53.178;6.376;2023-04-25T04:15:13;19.20;;;2.47;;
51792;SDS011;37850;53.178;6.376;2023-04-25T04:17:38;18.73;;;2.65;;
51792;SDS011;37850;53.178;6.376;2023-04-25T04:20:05;11.30;;;2.13;;
51792;SDS011;37850;53.178;6.376;2023-04-25T04:22:32;13.43;;;2.22;;
51792;SDS011;37850;53.178;6.376;2023-04-25T04:24:58;14.75;;;2.10;;
51792;SDS011;37850;53.178;6.376;2023-04-25T04:27:24;10.98;;;1.92;;
51792;SDS011;37850;53.178;6.376;2023-04-25T04:29:49;14.68;;;2.05;;
51792;SDS011;37850;53.178;6.376;2023-04-25T04:32:17;13.05;;;1.92;;
51792;SDS011;37850;53.178;6.376;2023-04-25T04:34:43;18.90;;;1.92;;
51792;SDS011;37850;53.178;6.376;2023-04-25T04:37:09;19.85;;;2.40;;
51792;SDS011;37850;53.178;6.376;2023-04-25T04:39:35;13.13;;;2.17;;
51792;SDS011;37850;53.178;6.376;2023-04-25T04:42:01;11.32;;;2.30;;
51792;SDS011;37850;53.178;6.376;2023-04-25T04:44:28;14.13;;;1.95;;
51792;SDS011;37850;53.178;6.376;2023-04-25T04:46:58;17.02;;;2.10;;
51792;SDS011;37850;53.178;6.376;2023-04-25T04:49:24;13.77;;;2.03;;
51792;SDS011;37850;53.178;6.376;2023-04-25T04:51:50;15.88;;;2.20;;
51792;SDS011;37850;53.178;6.376;2023-04-25T04:54:16;14.57;;;1.95;;
51792;SDS011;37850;53.178;6.376;2023-04-25T04:56:42;17.67;;;3.10;;
51792;SDS011;37850;53.178;6.376;2023-04-25T04:59:07;10.32;;;1.80;;
51792;SDS011;37850;53.178;6.376;2023-04-25T05:01:33;13.50;;;1.70;;
51792;SDS011;37850;53.178;6.376;2023-04-25T05:04:00;9.98;;;1.90;;
51792;SDS011;37850;53.178;6.376;2023-04-25T05:06:27;14.93;;;2.03;;
51792;SDS011;37850;53.178;6.376;2023-04-25T05:08:56;18.30;;;2.75;;
51792;SDS011;37850;53.178;6.376;2023-04-25T05:11:23;14.63;;;2.17;;
51792;SDS011;37850;53.178;6.376;2023-04-25T05:13:52;8.60;;;1.55;;
51792;SDS011;37850;53.178;6.376;2023-04-25T05:16:18;16.80;;;2.08;;
51792;SDS011;37850;53.178;6.376;2023-04-25T05:18:45;15.45;;;2.05;;
51792;SDS011;37850;53.178;6.376;2023-04-25T05:21:12;10.25;;;1.52;;
51792;SDS011;37850;53.178;6.376;2023-04-25T05:23:37;13.73;;;2.75;;
51792;SDS011;37850;53.178;6.376;2023-04-25T05:26:03;13.63;;;2.38;;
51792;SDS011;37850;53.178;6.376;2023-04-25T05:28:29;11.57;;;1.85;;
51792;SDS011;37850;53.178;6.376;2023-04-25T05:30:55;11.05;;;2.42;;
51792;SDS011;37850;53.178;6.376;2023-04-25T05:33:21;11.73;;;1.98;;
51792;SDS011;37850;53.178;6.376;2023-04-25T05:35:47;12.85;;;2.00;;
51792;SDS011;37850;53.178;6.376;2023-04-25T05:38:13;13.15;;;2.20;;
51792;SDS011;37850;53.178;6.376;2023-04-25T05:40:39;10.65;;;2.53;;
51792;SDS011;37850;53.178;6.376;2023-04-25T05:43:05;17.70;;;2.15;;
51792;SDS011;37850;53.178;6.376;2023-04-25T05:45:32;13.32;;;2.25;;
51792;SDS011;37850;53.178;6.376;2023-04-25T05:47:57;13.60;;;2.10;;
51792;SDS011;37850;53.178;6.376;2023-04-25T05:50:23;15.50;;;2.08;;
51792;SDS011;37850;53.178;6.376;2023-04-25T05:52:50;11.75;;;1.95;;
51792;SDS011;37850;53.178;6.376;2023-04-25T05:55:16;9.80;;;1.65;;
51792;SDS011;37850;53.178;6.376;2023-04-25T05:57:42;18.20;;;3.13;;
51792;SDS011;37850;53.178;6.376;2023-04-25T06:00:10;18.98;;;2.60;;
51792;SDS011;37850;53.178;6.376;2023-04-25T06:02:38;12.52;;;2.30;;
51792;SDS011;37850;53.178;6.376;2023-04-25T06:05:04;8.95;;;1.45;;
51792;SDS011;37850;53.178;6.376;2023-04-25T06:07:30;12.20;;;2.30;;
51792;SDS011;37850;53.178;6.376;2023-04-25T06:09:56;12.05;;;1.73;;
51792;SDS011;37850;53.178;6.376;2023-04-25T06:12:22;11.57;;;1.98;;
51792;SDS011;37850;53.178;6.376;2023-04-25T06:14:47;9.57;;;1.50;;
51792;SDS011;37850;53.178;6.376;2023-04-25T06:17:13;17.02;;;2.55;;
51792;SDS011;37850;53.178;6.376;2023-04-25T06:19:39;10.18;;;1.67;;
51792;SDS011;37850;53.178;6.376;2023-04-25T06:22:07;13.55;;;1.60;;
51792;SDS011;37850;53.178;6.376;2023-04-25T06:24:33;11.45;;;1.73;;
51792;SDS011;37850;53.178;6.376;2023-04-25T06:26:59;9.95;;;2.10;;
51792;SDS011;37850;53.178;6.376;2023-04-25T06:29:26;10.98;;;1.80;;
51792;SDS011;37850;53.178;6.376;2023-04-25T06:31:51;11.45;;;1.63;;
51792;SDS011;37850;53.178;6.376;2023-04-25T06:34:17;8.13;;;1.48;;
51792;SDS011;37850;53.178;6.376;2023-04-25T06:36:43;8.98;;;1.60;;
51792;SDS011;37850;53.178;6.376;2023-04-25T06:39:09;9.85;;;1.80;;
51792;SDS011;37850;53.178;6.376;2023-04-25T06:41:36;8.98;;;1.75;;
51792;SDS011;37850;53.178;6.376;2023-04-25T06:44:01;10.13;;;1.52;;
51792;SDS011;37850;53.178;6.376;2023-04-25T06:46:28;7.75;;;1.42;;
51792;SDS011;37850;53.178;6.376;2023-04-25T06:48:53;9.95;;;2.17;;
51792;SDS011;37850;53.178;6.376;2023-04-25T06:51:20;7.70;;;1.65;;
51792;SDS011;37850;53.178;6.376;2023-04-25T06:53:46;10.43;;;2.05;;
51792;SDS011;37850;53.178;6.376;2023-04-25T06:56:11;11.85;;;1.70;;
51792;SDS011;37850;53.178;6.376;2023-04-25T06:58:37;11.05;;;1.50;;
51792;SDS011;37850;53.178;6.376;2023-04-25T07:01:03;14.50;;;1.92;;
51792;SDS011;37850;53.178;6.376;2023-04-25T07:03:28;13.90;;;1.90;;
51792;SDS011;37850;53.178;6.376;2023-04-25T07:05:54;10.07;;;1.95;;
51792;SDS011;37850;53.178;6.376;2023-04-25T07:08:20;9.98;;;1.67;;
51792;SDS011;37850;53.178;6.376;2023-04-25T07:10:46;8.57;;;1.52;;
51792;SDS011;37850;53.178;6.376;2023-04-25T07:13:15;11.43;;;1.60;;
51792;SDS011;37850;53.178;6.376;2023-04-25T07:15:41;11.80;;;1.60;;
51792;SDS011;37850;53.178;6.376;2023-04-25T07:18:07;12.15;;;1.50;;
51792;SDS011;37850;53.178;6.376;2023-04-25T07:20:32;11.02;;;2.13;;
51792;SDS011;37850;53.178;6.376;2023-04-25T07:22:58;10.57;;;1.45;;
51792;SDS011;37850;53.178;6.376;2023-04-25T07:25:24;11.63;;;2.22;;
51792;SDS011;37850;53.178;6.376;2023-04-25T07:27:50;10.15;;;1.52;;
51792;SDS011;37850;53.178;6.376;2023-04-25T07:30:15;10.98;;;1.77;;
51792;SDS011;37850;53.178;6.376;2023-04-25T07:32:41;9.82;;;1.42;;
51792;SDS011;37850;53.178;6.376;2023-04-25T07:35:07;9.23;;;1.20;;
51792;SDS011;37850;53.178;6.376;2023-04-25T07:37:34;7.97;;;1.20;;
51792;SDS011;37850;53.178;6.376;2023-04-25T07:40:00;13.10;;;1.58;;
51792;SDS011;37850;53.178;6.376;2023-04-25T07:42:28;7.43;;;1.10;;
51792;SDS011;37850;53.178;6.376;2023-04-25T07:44:54;12.00;;;1.40;;
51792;SDS011;37850;53.178;6.376;2023-04-25T07:47:20;13.20;;;1.08;;
51792;SDS011;37850;53.178;6.376;2023-04-25T07:49:45;5.85;;;0.90;;
51792;SDS011;37850;53.178;6.376;2023-04-25T07:52:12;6.78;;;1.70;;
51792;SDS011;37850;53.178;6.376;2023-04-25T07:54:38;7.72;;;0.88;;
51792;SDS011;37850;53.178;6.376;2023-04-25T07:57:03;9.13;;;1.23;;
51792;SDS011;37850;53.178;6.376;2023-04-25T07:59:31;7.75;;;1.13;;
51792;SDS011;37850;53.178;6.376;2023-04-25T08:01:57;5.63;;;1.00;;
51792;SDS011;37850;53.178;6.376;2023-04-25T08:04:23;10.70;;;1.60;;
51792;SDS011;37850;53.178;6.376;2023-04-25T08:06:50;10.30;;;1.70;;
51792;SDS011;37850;53.178;6.376;2023-04-25T08:09:17;11.38;;;1.42;;
51792;SDS011;37850;53.178;6.376;2023-04-25T08:11:43;8.27;;;1.40;;
51792;SDS011;37850;53.178;6.376;2023-04-25T08:14:09;10.30;;;1.20;;
51792;SDS011;37850;53.178;6.376;2023-04-25T08:16:34;6.32;;;1.33;;
51792;SDS011;37850;53.178;6.376;2023-04-25T08:19:00;4.35;;;0.88;;
51792;SDS011;37850;53.178;6.376;2023-04-25T08:21:26;5.45;;;1.00;;
51792;SDS011;37850;53.178;6.376;2023-04-25T08:23:52;4.75;;;0.88;;
51792;SDS011;37850;53.178;6.376;2023-04-25T08:26:18;4.50;;;0.90;;
51792;SDS011;37850;53.178;6.376;2023-04-25T08:28:44;7.32;;;1.00;;
51792;SDS011;37850;53.178;6.376;2023-04-25T08:31:09;8.05;;;0.90;;
51792;SDS011;37850;53.178;6.376;2023-04-25T08:33:35;5.75;;;1.13;;
51792;SDS011;37850;53.178;6.376;2023-04-25T08:36:01;8.45;;;1.13;;
51792;SDS011;37850;53.178;6.376;2023-04-25T08:38:27;5.15;;;1.15;;
51792;SDS011;37850;53.178;6.376;2023-04-25T08:40:53;5.68;;;1.00;;
51792;SDS011;37850;53.178;6.376;2023-04-25T08:43:20;5.88;;;1.35;;
51792;SDS011;37850;53.178;6.376;2023-04-25T08:45:48;7.07;;;1.67;;
51792;SDS011;37850;53.178;6.376;2023-04-25T08:48:16;8.43;;;0.90;;
51792;SDS011;37850;53.178;6.376;2023-04-25T08:50:50;4.90;;;1.10;;
51792;SDS011;37850;53.178;6.376;2023-04-25T08:53:18;5.10;;;0.73;;
51792;SDS011;37850;53.178;6.376;2023-04-25T08:55:50;7.32;;;1.15;;
51792;SDS011;37850;53.178;6.376;2023-04-25T08:58:16;4.72;;;1.10;;
51792;SDS011;37850;53.178;6.376;2023-04-25T09:00:45;6.90;;;1.40;;
51792;SDS011;37850;53.178;6.376;2023-04-25T09:03:12;6.80;;;1.00;;
51792;SDS011;37850;53.178;6.376;2023-04-25T09:05:39;6.75;;;1.40;;
51792;SDS011;37850;53.178;6.376;2023-04-25T09:08:06;6.95;;;1.40;;
51792;SDS011;37850;53.178;6.376;2023-04-25T09:10:32;10.25;;;1.25;;
51792;SDS011;37850;53.178;6.376;2023-04-25T09:13:12;9.35;;;1.88;;
51792;SDS011;37850;53.178;6.376;2023-04-25T09:15:47;9.77;;;1.00;;
51792;SDS011;37850;53.178;6.376;2023-04-25T09:21:04;10.60;;;1.50;;
51792;SDS011;37850;53.178;6.376;2023-04-25T09:23:38;8.75;;;1.35;;
51792;SDS011;37850;53.178;6.376;2023-04-25T09:26:19;12.98;;;1.50;;
51792;SDS011;37850;53.178;6.376;2023-04-25T09:28:45;11.32;;;2.08;;
51792;SDS011;37850;53.178;6.376;2023-04-25T09:31:20;11.50;;;1.60;;
51792;SDS011;37850;53.178;6.376;2023-04-25T09:33:50;14.02;;;1.90;;
51792;SDS011;37850;53.178;6.376;2023-04-25T09:36:27;9.65;;;1.95;;
51792;SDS011;37850;53.178;6.376;2023-04-25T09:38:53;7.57;;;1.50;;
51792;SDS011;37850;53.178;6.376;2023-04-25T09:41:23;6.15;;;1.08;;
51792;SDS011;37850;53.178;6.376;2023-04-25T09:43:49;5.10;;;1.13;;
51792;SDS011;37850;53.178;6.376;2023-04-25T09:46:15;5.70;;;1.10;;
51792;SDS011;37850;53.178;6.376;2023-04-25T09:48:50;7.60;;;1.27;;
51792;SDS011;37850;53.178;6.376;2023-04-25T09:51:16;8.73;;;1.45;;
51792;SDS011;37850;53.178;6.376;2023-04-25T09:53:45;8.82;;;1.70;;
51792;SDS011;37850;53.178;6.376;2023-04-25T09:56:14;10.32;;;1.70;;
51792;SDS011;37850;53.178;6.376;2023-04-25T09:58:41;9.27;;;1.50;;
51792;SDS011;37850;53.178;6.376;2023-04-25T10:01:07;13.48;;;1.67;;
51792;SDS011;37850;53.178;6.376;2023-04-25T10:03:35;8.95;;;1.70;;
51792;SDS011;37850;53.178;6.376;2023-04-25T10:06:09;9.35;;;1.33;;
51792;SDS011;37850;53.178;6.376;2023-04-25T10:08:39;8.32;;;1.42;;
51792;SDS011;37850;53.178;6.376;2023-04-25T10:11:07;14.45;;;2.00;;
51792;SDS011;37850;53.178;6.376;2023-04-25T10:13:34;11.65;;;1.50;;
51792;SDS011;37850;53.178;6.376;2023-04-25T10:16:02;9.88;;;1.67;;
51792;SDS011;37850;53.178;6.376;2023-04-25T10:18:29;8.48;;;1.60;;
51792;SDS011;37850;53.178;6.376;2023-04-25T10:20:58;6.50;;;1.40;;
51792;SDS011;37850;53.178;6.376;2023-04-25T10:23:26;9.38;;;1.42;;
51792;SDS011;37850;53.178;6.376;2023-04-25T10:25:52;13.38;;;1.60;;
51792;SDS011;37850;53.178;6.376;2023-04-25T10:28:19;8.55;;;1.60;;
51792;SDS011;37850;53.178;6.376;2023-04-25T10:31:19;10.68;;;1.27;;
51792;SDS011;37850;53.178;6.376;2023-04-25T10:33:41;7.75;;;1.70;;
51792;SDS011;37850;53.178;6.376;2023-04-25T10:36:09;5.80;;;1.05;;
51792;SDS011;37850;53.178;6.376;2023-04-25T10:38:39;8.87;;;1.30;;
51792;SDS011;37850;53.178;6.376;2023-04-25T10:41:08;10.20;;;1.55;;
51792;SDS011;37850;53.178;6.376;2023-04-25T10:43:44;12.13;;;1.40;;
51792;SDS011;37850;53.178;6.376;2023-04-25T10:46:15;13.52;;;1.85;;
51792;SDS011;37850;53.178;6.376;2023-04-25T10:48:47;11.27;;;1.88;;
51792;SDS011;37850;53.178;6.376;2023-04-25T10:51:22;10.45;;;1.60;;
51792;SDS011;37850;53.178;6.376;2023-04-25T10:53:56;13.05;;;1.60;;
51792;SDS011;37850;53.178;6.376;2023-04-25T10:56:23;9.23;;;1.65;;
51792;SDS011;37850;53.178;6.376;2023-04-25T10:58:51;9.75;;;1.58;;
51792;SDS011;37850;53.178;6.376;2023-04-25T11:01:27;7.78;;;1.40;;
51792;SDS011;37850;53.178;6.376;2023-04-25T11:04:02;7.50;;;1.33;;
51792;SDS011;37850;53.178;6.376;2023-04-25T11:06:42;10.45;;;1.88;;
51792;SDS011;37850;53.178;6.376;2023-04-25T11:09:23;10.73;;;1.60;;
51792;SDS011;37850;53.178;6.376;2023-04-25T11:11:56;9.25;;;1.60;;
51792;SDS011;37850;53.178;6.376;2023-04-25T11:14:24;10.60;;;1.67;;
51792;SDS011;37850;53.178;6.376;2023-04-25T11:16:56;9.60;;;1.48;;
51792;SDS011;37850;53.178;6.376;2023-04-25T11:19:23;7.28;;;1.52;;
51792;SDS011;37850;53.178;6.376;2023-04-25T11:21:50;9.95;;;2.00;;
51792;SDS011;37850;53.178;6.376;2023-04-25T11:24:25;9.98;;;1.58;;
51792;SDS011;37850;53.178;6.376;2023-04-25T11:26:54;8.10;;;1.65;;
51792;SDS011;37850;53.178;6.376;2023-04-25T11:29:23;9.90;;;1.20;;
51792;SDS011;37850;53.178;6.376;2023-04-25T11:31:53;7.45;;;1.30;;
51792;SDS011;37850;53.178;6.376;2023-04-25T11:34:22;8.80;;;1.50;;
51792;SDS011;37850;53.178;6.376;2023-04-25T11:36:50;9.98;;;1.40;;
51792;SDS011;37850;53.178;6.376;2023-04-25T11:39:17;8.63;;;1.30;;
51792;SDS011;37850;53.178;6.376;2023-04-25T11:41:47;10.10;;;1.60;;
51792;SDS011;37850;53.178;6.376;2023-04-25T11:44:15;10.80;;;1.50;;
51792;SDS011;37850;53.178;6.376;2023-04-25T11:46:42;8.40;;;1.20;;
51792;SDS011;37850;53.178;6.376;2023-04-25T11:49:08;8.90;;;1.95;;
51792;SDS011;37850;53.178;6.376;2023-04-25T11:51:40;9.13;;;1.40;;
51792;SDS011;37850;53.178;6.376;2023-04-25T11:54:09;8.50;;;1.90;;
51792;SDS011;37850;53.178;6.376;2023-04-25T11:56:36;8.90;;;1.38;;
51792;SDS011;37850;53.178;6.376;2023-04-25T11:59:03;8.65;;;1.27;;
51792;SDS011;37850;53.178;6.376;2023-04-25T12:01:31;11.60;;;1.60;;
51792;SDS011;37850;53.178;6.376;2023-04-25T12:03:58;10.32;;;1.65;;
51792;SDS011;37850;53.178;6.376;2023-04-25T12:06:36;11.65;;;1.60;;
51792;SDS011;37850;53.178;6.376;2023-04-25T12:09:07;9.68;;;1.83;;
51792;SDS011;37850;53.178;6.376;2023-04-25T12:11:44;8.35;;;1.40;;
51792;SDS011;37850;53.178;6.376;2023-04-25T12:14:11;10.02;;;1.63;;
51792;SDS011;37850;53.178;6.376;2023-04-25T12:16:44;8.27;;;1.58;;
51792;SDS011;37850;53.178;6.376;2023-04-25T12:19:14;9.50;;;1.55;;
51792;SDS011;37850;53.178;6.376;2023-04-25T12:21:42;10.38;;;1.45;;
51792;SDS011;37850;53.178;6.376;2023-04-25T12:24:12;9.73;;;1.92;;
51792;SDS011;37850;53.178;6.376;2023-04-25T12:26:52;7.70;;;1.50;;
51792;SDS011;37850;53.178;6.376;2023-04-25T12:29:24;9.57;;;1.55;;
51792;SDS011;37850;53.178;6.376;2023-04-25T12:31:51;12.52;;;1.67;;
51792;SDS011;37850;53.178;6.376;2023-04-25T12:34:18;10.32;;;1.35;;
51792;SDS011;37850;53.178;6.376;2023-04-25T12:36:45;8.80;;;1.50;;
51792;SDS011;37850;53.178;6.376;2023-04-25T12:39:20;13.25;;;1.63;;
51792;SDS011;37850;53.178;6.376;2023-04-25T12:41:49;13.63;;;1.98;;
51792;SDS011;37850;53.178;6.376;2023-04-25T12:44:18;8.45;;;1.40;;
51792;SDS011;37850;53.178;6.376;2023-04-25T12:46:44;11.35;;;1.58;;
51792;SDS011;37850;53.178;6.376;2023-04-25T12:49:10;12.25;;;1.67;;
51792;SDS011;37850;53.178;6.376;2023-04-25T12:51:36;10.98;;;2.10;;
51792;SDS011;37850;53.178;6.376;2023-04-25T12:54:03;7.97;;;1.42;;
51792;SDS011;37850;53.178;6.376;2023-04-25T12:56:30;8.07;;;1.25;;
51792;SDS011;37850;53.178;6.376;2023-04-25T12:58:56;10.77;;;1.40;;
51792;SDS011;37850;53.178;6.376;2023-04-25T13:01:22;6.78;;;1.35;;
51792;SDS011;37850;53.178;6.376;2023-04-25T13:03:49;9.90;;;1.08;;
51792;SDS011;37850;53.178;6.376;2023-04-25T13:06:15;8.13;;;1.15;;
51792;SDS011;37850;53.178;6.376;2023-04-25T13:08:41;8.68;;;1.50;;
51792;SDS011;37850;53.178;6.376;2023-04-25T13:11:07;11.07;;;1.48;;
51792;SDS011;37850;53.178;6.376;2023-04-25T13:13:33;7.93;;;1.40;;
51792;SDS011;37850;53.178;6.376;2023-04-25T13:16:03;12.90;;;1.90;;
51792;SDS011;37850;53.178;6.376;2023-04-25T13:18:29;10.27;;;2.20;;
51792;SDS011;37850;53.178;6.376;2023-04-25T13:20:56;8.93;;;1.90;;
51792;SDS011;37850;53.178;6.376;2023-04-25T13:23:23;12.93;;;2.08;;
51792;SDS011;37850;53.178;6.376;2023-04-25T13:25:51;10.55;;;1.73;;
51792;SDS011;37850;53.178;6.376;2023-04-25T13:28:17;8.45;;;1.60;;
51792;SDS011;37850;53.178;6.376;2023-04-25T13:30:43;14.23;;;2.03;;
51792;SDS011;37850;53.178;6.376;2023-04-25T13:33:09;10.57;;;1.48;;
51792;SDS011;37850;53.178;6.376;2023-04-25T13:35:35;8.23;;;1.92;;
51792;SDS011;37850;53.178;6.376;2023-04-25T13:38:03;7.80;;;1.13;;
51792;SDS011;37850;53.178;6.376;2023-04-25T13:40:28;15.02;;;1.25;;
51792;SDS011;37850;53.178;6.376;2023-04-25T13:42:54;12.23;;;1.40;;
51792;SDS011;37850;53.178;6.376;2023-04-25T13:45:23;10.15;;;1.40;;
51792;SDS011;37850;53.178;6.376;2023-04-25T13:47:49;11.18;;;1.42;;
51792;SDS011;37850;53.178;6.376;2023-04-25T13:50:15;6.38;;;1.27;;
51792;SDS011;37850;53.178;6.376;2023-04-25T13:52:41;10.85;;;1.45;;
51792;SDS011;37850;53.178;6.376;2023-04-25T13:55:07;9.82;;;1.60;;
51792;SDS011;37850;53.178;6.376;2023-04-25T13:57:34;12.05;;;1.80;;
51792;SDS011;37850;53.178;6.376;2023-04-25T14:00:01;9.20;;;1.75;;
51792;SDS011;37850;53.178;6.376;2023-04-25T14:02:33;8.48;;;1.20;;
51792;SDS011;37850;53.178;6.376;2023-04-25T14:05:00;10.57;;;1.35;;
51792;SDS011;37850;53.178;6.376;2023-04-25T14:07:26;11.02;;;1.42;;
51792;SDS011;37850;53.178;6.376;2023-04-25T14:09:52;7.13;;;1.50;;
51792;SDS011;37850;53.178;6.376;2023-04-25T14:12:18;10.43;;;2.55;;
51792;SDS011;37850;53.178;6.376;2023-04-25T14:14:43;9.00;;;1.77;;
51792;SDS011;37850;53.178;6.376;2023-04-25T14:17:09;10.93;;;1.98;;
51792;SDS011;37850;53.178;6.376;2023-04-25T14:19:35;12.35;;;1.90;;
51792;SDS011;37850;53.178;6.376;2023-04-25T14:22:03;9.15;;;1.65;;
51792;SDS011;37850;53.178;6.376;2023-04-25T14:24:29;9.52;;;1.70;;
51792;SDS011;37850;53.178;6.376;2023-04-25T14:26:55;13.15;;;2.15;;
51792;SDS011;37850;53.178;6.376;2023-04-25T14:29:21;10.45;;;2.17;;
51792;SDS011;37850;53.178;6.376;2023-04-25T14:31:47;15.13;;;1.60;;
51792;SDS011;37850;53.178;6.376;2023-04-25T14:34:13;9.63;;;1.67;;
51792;SDS011;37850;53.178;6.376;2023-04-25T14:36:39;10.25;;;1.60;;
51792;SDS011;37850;53.178;6.376;2023-04-25T14:39:05;8.90;;;1.60;;
51792;SDS011;37850;53.178;6.376;2023-04-25T14:41:31;9.88;;;1.70;;